Terminal Aerodrome Forecast
Issued by NWS Cleveland, OH

Home | Current Version | Previous Version | Text Only | Print | Product List | Glossary Off
Versions: 1 2 3 4 5 6 7 8 9 10 11 12 13 14 15 16 17 18 19 20 21 22 23

000
FTUS41 KCLE 241000 AAB
TAFTOL
TAF AMD
KTOL 241010Z 2410/2506 05008KT 1SM BR OVC003
      TEMPO 2410/2414 1/2SM FG
     FM241800 13010KT P6SM OVC006
     FM242000 18015G25KT P6SM -SHRA OVC008
     FM242200 24022G35KT P6SM OVC012=

USA.gov is the U.S. government's official web portal to all federal, state and local government web resources and services.